Time;durP1;ratioP1;P1;durP2;ratioP2;P2;SDS_P1;SDS_P2;PMS_P1;PMS_P2;Temp;Humidity;BMP_temperature;BMP_pressure;BME280_temperature;BME280_humidity;BME280_pressure;Samples;Min_cycle;Max_cycle;Signal;HPM_P1;HPM_P2
2022/01/02 00:01:12;;;;;;;15.68;9.98;;;;;;;2.54;100.00;99191.84;10366918;28;20054;-80
2022/01/02 00:06:17;;;;;;;14.57;9.70;;;;;;;2.62;100.00;99180.81;10367048;28;20061;-80
2022/01/02 00:11:22;;;;;;;18.52;10.60;;;;;;;2.66;100.00;99167.88;10359413;28;20066;-80
2022/01/02 00:16:27;;;;;;;14.88;9.52;;;;;;;2.54;100.00;99160.84;10380922;28;20042;-82
2022/01/02 00:21:32;;;;;;;18.13;9.77;;;;;;;2.61;100.00;99167.81;10368128;28;20112;-82
2022/01/02 00:26:38;;;;;;;20.55;10.77;;;;;;;2.73;100.00;99171.91;10336535;28;20058;-81
2022/01/02 00:31:40;;;;;;;33.03;15.20;;;;;;;2.85;100.00;99171.78;10333026;28;20153;-81
2022/01/02 00:36:42;;;;;;;37.08;15.95;;;;;;;2.81;100.00;99166.16;10348547;28;20360;-80
2022/01/02 00:41:56;;;;;;;31.83;16.60;;;;;;;2.77;100.00;99165.09;10383939;28;20057;-81
2022/01/02 00:47:22;;;;;;;30.13;14.52;;;;;;;2.70;100.00;99147.78;10364809;28;20472;-79
2022/01/02 00:52:24;;;;;;;22.77;11.80;;;;;;;2.55;100.00;99156.34;10387528;28;20050;-81
2022/01/02 00:57:38;;;;;;;26.90;13.35;;;;;;;2.52;100.00;99155.00;10369947;28;20034;-83
2022/01/02 01:02:44;;;;;;;21.80;12.10;;;;;;;2.59;100.00;99146.88;10391238;28;20061;-83
2022/01/02 01:07:53;;;;;;;18.52;10.20;;;;;;;2.49;100.00;99142.25;10384532;28;20600;-80
2022/01/02 01:12:56;;;;;;;23.65;13.23;;;;;;;2.53;100.00;99153.97;10380388;28;20064;-79
2022/01/02 01:18:00;;;;;;;24.02;13.55;;;;;;;2.62;100.00;99133.13;10396548;28;20057;-81
2022/01/02 01:23:02;;;;;;;20.65;13.18;;;;;;;2.59;100.00;99128.31;10370773;28;20050;-80
2022/01/02 01:28:04;;;;;;;19.85;10.52;;;;;;;2.59;100.00;99116.94;10380828;28;20053;-82
2022/01/02 01:33:07;;;;;;;21.23;10.75;;;;;;;2.61;100.00;99117.47;10347561;28;20050;-82
2022/01/02 01:38:11;;;;;;;22.08;12.52;;;;;;;2.65;100.00;99111.44;10363257;28;20057;-82
2022/01/02 01:43:14;;;;;;;24.67;12.32;;;;;;;2.54;100.00;99105.22;10374815;28;20050;-81
2022/01/02 01:48:18;;;;;;;23.80;13.07;;;;;;;2.58;100.00;99107.38;10352150;28;20081;-80
2022/01/02 01:53:19;;;;;;;19.35;11.20;;;;;;;2.54;100.00;99099.91;10364926;28;20073;-82
2022/01/02 01:58:19;;;;;;;16.48;9.50;;;;;;;2.42;100.00;99093.97;10314558;28;20045;-82
2022/01/02 02:03:20;;;;;;;15.48;10.18;;;;;;;2.39;100.00;99091.03;10356681;28;20079;-80
2022/01/02 02:08:26;;;;;;;22.38;12.68;;;;;;;2.42;100.00;99086.03;10320503;28;20054;-83
2022/01/02 02:13:28;;;;;;;18.77;11.25;;;;;;;2.44;100.00;99097.16;10390392;28;20052;-81
2022/01/02 02:18:37;;;;;;;16.40;10.40;;;;;;;2.40;100.00;99090.78;10352688;28;20113;-82
2022/01/02 02:23:37;;;;;;;23.70;12.27;;;;;;;2.39;100.00;99080.44;10381321;28;20058;-82
2022/01/02 02:28:45;;;;;;;21.98;12.43;;;;;;;2.35;100.00;99072.16;10393740;28;20053;-81
2022/01/02 02:33:45;;;;;;;17.30;9.50;;;;;;;2.31;100.00;99064.97;10360044;28;20042;-83
2022/01/02 02:38:48;;;;;;;20.95;12.20;;;;;;;2.31;100.00;99065.78;10392732;28;20057;-82
2022/01/02 02:43:59;;;;;;;19.60;10.48;;;;;;;2.31;100.00;99059.69;10362804;28;20058;-80
2022/01/02 02:49:02;;;;;;;16.23;8.85;;;;;;;2.06;100.00;99044.31;10381220;28;20065;-78
2022/01/02 02:54:05;;;;;;;18.33;9.05;;;;;;;2.00;100.00;99036.31;10359027;28;20056;-79
2022/01/02 02:59:06;;;;;;;22.87;11.87;;;;;;;2.16;100.00;99029.34;10355126;28;20057;-79
2022/01/02 03:04:08;;;;;;;25.23;11.68;;;;;;;2.25;100.00;99035.78;10343648;28;20033;-80
2022/01/02 03:09:10;;;;;;;20.40;11.82;;;;;;;2.28;100.00;99037.13;10369741;28;20136;-81
2022/01/02 03:14:13;;;;;;;19.75;10.70;;;;;;;2.23;100.00;99037.88;10380981;28;20061;-82
2022/01/02 03:19:17;;;;;;;20.80;11.15;;;;;;;2.15;100.00;99033.03;10372346;28;20058;-80
2022/01/02 03:24:18;;;;;;;16.10;9.48;;;;;;;2.02;100.00;99017.56;10372677;28;20137;-80
2022/01/02 03:29:22;;;;;;;17.67;9.35;;;;;;;1.96;100.00;99019.34;10378346;28;20065;-83
2022/01/02 03:34:24;;;;;;;;;;;;;;;1.95;100.00;99015.09;10349631;28;20058;-82
2022/01/02 03:39:27;;;;;;;21.52;10.85;;;;;;;1.99;100.00;99004.78;10358920;28;19926;-82
2022/01/02 03:44:28;;;;;;;17.27;9.88;;;;;;;1.88;100.00;99001.25;10356177;28;20062;-83
2022/01/02 03:49:32;;;;;;;19.67;9.95;;;;;;;1.84;100.00;99009.94;10358742;28;20098;-83
2022/01/02 03:54:37;;;;;;;20.17;10.43;;;;;;;1.80;100.00;98996.38;10408396;28;20038;-81
2022/01/02 03:59:39;;;;;;;25.25;12.15;;;;;;;1.66;100.00;98989.88;10395418;28;20109;-80
2022/01/02 04:04:42;;;;;;;17.50;10.20;;;;;;;1.32;100.00;98974.13;10361228;28;20495;-81
2022/01/02 04:09:44;;;;;;;17.60;9.80;;;;;;;1.34;100.00;98982.59;10361395;28;20060;-81
2022/01/02 04:14:44;;;;;;;17.98;9.75;;;;;;;1.38;100.00;98983.72;10320776;28;20058;-80
2022/01/02 04:19:45;;;;;;;16.15;8.93;;;;;;;1.40;100.00;98978.19;10348502;28;20046;-82
2022/01/02 04:24:46;;;;;;;19.15;9.85;;;;;;;1.41;100.00;98971.84;10353306;28;20057;-80
2022/01/02 04:29:47;;;;;;;18.48;9.93;;;;;;;1.38;100.00;98972.34;10346539;28;20057;-79
2022/01/02 04:34:48;;;;;;;16.98;9.38;;;;;;;1.40;100.00;98967.63;10346858;28;20515;-82
2022/01/02 04:39:50;;;;;;;17.58;9.32;;;;;;;1.23;100.00;98967.66;10369530;28;20553;-79
2022/01/02 04:44:52;;;;;;;16.83;9.38;;;;;;;1.28;100.00;98966.91;10362470;28;20082;-80
2022/01/02 04:49:55;;;;;;;15.15;9.13;;;;;;;1.19;100.00;98963.91;10359682;28;20116;-83
2022/01/02 04:55:02;;;;;;;17.90;9.77;;;;;;;1.23;100.00;98961.56;10352992;28;20096;-81
2022/01/02 05:00:06;;;;;;;14.68;8.85;;;;;;;1.06;100.00;98957.13;10366884;28;20058;-81
2022/01/02 05:05:07;;;;;;;;;;;;;;;1.07;100.00;98942.88;10355382;28;20050;-80
2022/01/02 05:10:10;;;;;;;15.10;7.95;;;;;;;0.91;100.00;98938.41;10394108;28;19997;-80
2022/01/02 05:15:23;;;;;;;16.13;8.10;;;;;;;0.93;100.00;98939.00;10367756;28;20053;-81
2022/01/02 05:20:38;;;;;;;20.35;10.50;;;;;;;0.99;100.00;98931.91;10343545;28;20042;-85
2022/01/02 05:25:52;;;;;;;18.50;10.70;;;;;;;1.09;100.00;98943.41;10332655;28;20486;-85
2022/01/02 05:30:56;;;;;;;23.23;12.55;;;;;;;1.13;100.00;98933.97;10387555;28;20512;-85
2022/01/02 05:35:57;;;;;;;20.38;10.68;;;;;;;1.04;100.00;98929.34;10323641;28;20042;-78
2022/01/02 05:40:58;;;;;;;18.40;10.05;;;;;;;1.04;100.00;98916.13;10364767;28;20062;-82
2022/01/02 05:46:05;;;;;;;22.40;11.80;;;;;;;1.09;100.00;98914.34;10377648;28;20069;-83
2022/01/02 05:51:10;;;;;;;24.58;12.23;;;;;;;1.20;100.00;98914.50;10378044;28;20093;-79
2022/01/02 05:56:12;;;;;;;21.08;11.93;;;;;;;1.29;100.00;98903.22;10356782;28;20116;-82
2022/01/02 06:01:14;;;;;;;22.55;10.77;;;;;;;1.29;100.00;98895.31;10347189;28;20065;-79
2022/01/02 06:06:16;;;;;;;17.58;10.52;;;;;;;1.25;100.00;98882.81;10382906;28;20038;-85
2022/01/02 06:11:17;;;;;;;20.37;11.23;;;;;;;1.29;100.00;98886.56;10386825;28;20073;-80
2022/01/02 06:16:19;;;;;;;21.13;10.70;;;;;;;1.36;100.00;98887.16;10360650;28;20034;-84
2022/01/02 06:21:23;;;;;;;23.13;10.88;;;;;;;1.35;100.00;98869.69;10389204;28;20065;-82
2022/01/02 06:26:27;;;;;;;29.25;12.27;;;;;;;1.39;100.00;98870.81;10360536;28;20052;-83
2022/01/02 06:31:27;;;;;;;;;;;;;;;1.56;100.00;98871.53;10369770;28;20053;-80
2022/01/02 06:36:33;;;;;;;23.27;11.80;;;;;;;1.63;100.00;98848.28;10374647;28;19905;-84
2022/01/02 06:41:34;;;;;;;20.95;10.88;;;;;;;1.69;100.00;98849.16;10389683;28;20058;-80
2022/01/02 06:46:35;;;;;;;25.75;14.05;;;;;;;1.82;100.00;98855.88;10351265;28;20056;-80
2022/01/02 06:51:49;;;;;;;35.45;17.30;;;;;;;2.12;100.00;98861.44;10380506;28;20062;-81
2022/01/02 06:56:50;;;;;;;29.80;15.60;;;;;;;2.20;100.00;98863.63;10358380;28;20443;-79
2022/01/02 07:01:53;;;;;;;39.93;17.53;;;;;;;2.25;100.00;98849.59;10364126;28;20039;-85
2022/01/02 07:06:58;;;;;;;32.38;15.48;;;;;;;2.06;100.00;98841.25;10393280;28;20050;-84
2022/01/02 07:12:02;;;;;;;29.52;15.55;;;;;;;2.08;100.00;98822.47;10360338;28;20104;-79
2022/01/02 07:17:03;;;;;;;24.42;13.02;;;;;;;2.07;100.00;98836.75;10359494;28;20050;-81
2022/01/02 07:22:05;;;;;;;37.22;17.38;;;;;;;2.19;100.00;98843.44;10380206;28;20053;-82
2022/01/02 07:27:07;;;;;;;36.60;16.48;;;;;;;2.41;100.00;98861.09;10387878;28;20077;-83
2022/01/02 07:32:08;;;;;;;32.10;16.67;;;;;;;2.46;100.00;98847.88;10372584;28;20525;-80
2022/01/02 07:37:35;;;;;;;27.38;13.63;;;;;;;2.28;100.00;98843.78;10392445;28;20049;-81
2022/01/02 07:42:59;;;;;;;28.05;14.88;;;;;;;2.23;100.00;98855.16;10394445;28;20058;-82
2022/01/02 07:48:25;;;;;;;28.80;14.10;;;;;;;2.30;100.00;98862.09;10346379;28;20113;-83
2022/01/02 07:53:26;;;;;;;29.33;15.23;;;;;;;2.31;100.00;98861.84;10339450;28;20082;-81
2022/01/02 07:58:31;;;;;;;27.45;14.85;;;;;;;2.38;100.00;98861.59;10373118;28;20064;-83
2022/01/02 08:04:05;;;;;;;29.83;16.65;;;;;;;2.46;100.00;98837.28;10373147;28;20504;-82
2022/01/02 08:09:15;;;;;;;25.80;14.57;;;;;;;2.26;100.00;98838.75;10347895;28;20089;-81
2022/01/02 08:14:16;;;;;;;31.52;16.33;;;;;;;2.52;100.00;98844.22;10390371;28;20080;-81
2022/01/02 08:19:29;;;;;;;33.38;17.05;;;;;;;2.80;100.00;98853.63;10315360;28;20165;-83
2022/01/02 08:24:34;;;;;;;36.40;17.42;;;;;;;3.02;100.00;98848.19;10376074;28;20054;-81
2022/01/02 08:29:42;;;;;;;41.20;18.35;;;;;;;3.21;100.00;98838.69;10334870;28;20054;-82
2022/01/02 08:34:43;;;;;;;36.95;17.70;;;;;;;3.47;100.00;98836.09;10359039;28;20132;-83
2022/01/02 08:39:48;;;;;;;36.42;16.30;;;;;;;3.58;100.00;98835.06;10340463;28;20078;-81
2022/01/02 08:44:50;;;;;;;36.72;18.33;;;;;;;3.54;100.00;98821.50;10316284;28;20058;-78
2022/01/02 08:49:51;;;;;;;34.47;18.58;;;;;;;3.70;100.00;98823.13;10330550;28;20069;-80
2022/01/02 08:54:54;;;;;;;34.75;17.60;;;;;;;3.74;100.00;98825.25;10376328;28;20093;-81
2022/01/02 08:59:55;;;;;;;32.05;16.75;;;;;;;3.86;100.00;98825.81;10397318;28;20076;-82
2022/01/02 09:04:58;;;;;;;31.02;15.35;;;;;;;3.91;100.00;98834.53;10359781;28;20049;-81
2022/01/02 09:10:06;;;;;;;33.13;17.05;;;;;;;4.03;100.00;98818.38;10385383;28;20113;-82
2022/01/02 09:15:27;;;;;;;30.00;16.17;;;;;;;4.28;100.00;98818.31;10350372;28;20050;-80
2022/01/02 09:20:30;;;;;;;28.33;15.60;;;;;;;4.31;100.00;98811.69;10355180;28;20038;-81
2022/01/02 09:25:34;;;;;;;30.85;15.23;;;;;;;4.51;100.00;98794.91;10334759;28;20678;-82
2022/01/02 09:30:46;;;;;;;22.83;13.70;;;;;;;4.77;100.00;98804.38;10331438;28;20061;-83
2022/01/02 09:41:33;;;;;;;17.63;12.35;;;;;;;5.19;100.00;98797.00;10426855;23;20045;-80
2022/01/02 09:46:38;;;;;;;16.38;12.00;;;;;;;5.36;100.00;98795.56;10392616;28;20149;-76
2022/01/02 09:51:42;;;;;;;21.40;12.80;;;;;;;5.41;100.00;98787.56;10402327;28;20050;-77
2022/01/02 09:56:43;;;;;;;20.65;12.85;;;;;;;5.41;100.00;98784.13;10374869;28;20193;-76
2022/01/02 10:01:43;;;;;;;20.92;12.38;;;;;;;5.47;100.00;98782.97;10367380;28;20184;-77
2022/01/02 10:06:50;;;;;;;18.50;12.55;;;;;;;5.60;100.00;98755.75;10359470;28;20108;-74
2022/01/02 10:11:52;;;;;;;18.23;12.00;;;;;;;5.65;100.00;98744.25;10353322;28;20053;-81
2022/01/02 10:16:57;;;;;;;17.77;12.05;;;;;;;5.77;100.00;98757.22;10375758;28;20046;-85
2022/01/02 10:22:01;;;;;;;20.15;12.40;;;;;;;5.92;100.00;98741.91;10402958;28;20037;-83
2022/01/02 10:27:06;;;;;;;17.55;12.07;;;;;;;5.95;100.00;98751.22;10400810;28;20052;-84
2022/01/02 10:32:33;;;;;;;17.95;11.27;;;;;;;6.09;100.00;98733.50;10424951;28;20057;-81
2022/01/02 10:38:04;;;;;;;15.93;10.73;;;;;;;6.33;100.00;98730.84;10399289;28;20065;-82
2022/01/02 10:43:21;;;;;;;20.83;12.15;;;;;;;6.16;100.00;98722.50;10391282;28;20049;-82
2022/01/02 10:48:49;;;;;;;19.85;12.90;;;;;;;6.36;100.00;98732.16;10392382;28;20049;-86
2022/01/02 10:54:01;;;;;;;21.75;13.13;;;;;;;6.50;100.00;98731.19;10379376;28;20054;-86
2022/01/02 10:59:35;;;;;;;18.40;11.68;;;;;;;6.66;100.00;98731.00;10392318;28;20034;-84
2022/01/02 11:04:44;;;;;;;16.40;10.95;;;;;;;6.83;100.00;98724.09;10382464;28;20065;-80
2022/01/02 11:09:46;;;;;;;17.52;11.52;;;;;;;6.77;100.00;98716.47;10384510;28;20580;-81
2022/01/02 11:14:50;;;;;;;17.23;11.18;;;;;;;6.81;100.00;98709.47;10355170;28;20050;-82
2022/01/02 11:19:52;;;;;;;19.13;11.38;;;;;;;6.83;100.00;98686.75;10350440;28;20054;-79
2022/01/02 11:25:01;;;;;;;16.50;11.43;;;;;;;7.03;100.00;98679.53;10333129;28;20061;-78
2022/01/02 11:30:35;;;;;;;16.08;10.68;;;;;;;7.08;100.00;98661.56;10348949;28;20145;-77
2022/01/02 11:35:40;;;;;;;22.67;11.95;;;;;;;7.14;100.00;98659.63;10341857;28;20064;-82
2022/01/02 11:40:55;;;;;;;17.38;11.52;;;;;;;7.21;100.00;98648.56;10299865;28;20117;-81
2022/01/02 11:46:29;;;;;;;16.98;10.50;;;;;;;7.33;100.00;98641.69;10365888;28;20077;-80
2022/01/02 11:51:51;;;;;;;18.13;11.07;;;;;;;7.18;100.00;98619.78;10347124;28;20066;-79
2022/01/02 11:56:53;;;;;;;15.82;10.75;;;;;;;7.17;100.00;98603.00;10356114;28;20448;-79
2022/01/02 12:01:57;;;;;;;17.67;11.00;;;;;;;7.24;100.00;98595.41;10356049;28;20062;-79
2022/01/02 12:06:58;;;;;;;19.15;11.85;;;;;;;7.28;100.00;98579.56;10341770;28;20463;-79
2022/01/02 12:12:01;;;;;;;18.27;11.10;;;;;;;7.25;100.00;98556.94;10367716;28;20078;-80
2022/01/02 12:17:13;;;;;;;17.27;10.75;;;;;;;7.20;100.00;98562.34;10351209;28;20057;-81
2022/01/02 12:22:16;;;;;;;17.20;10.45;;;;;;;7.22;100.00;98586.06;10345240;28;20058;-80
2022/01/02 12:27:17;;;;;;;15.25;10.68;;;;;;;7.18;100.00;98595.78;10350066;28;20054;-79
2022/01/02 12:32:21;;;;;;;19.23;10.77;;;;;;;7.17;100.00;98578.19;10343806;28;20050;-80
2022/01/02 12:37:28;;;;;;;17.63;11.75;;;;;;;7.19;100.00;98565.31;10327940;28;20342;-79
2022/01/02 12:42:30;;;;;;;14.73;9.98;;;;;;;7.20;100.00;98554.34;10354750;28;20069;-79
2022/01/02 12:47:35;;;;;;;16.20;10.95;;;;;;;7.20;100.00;98541.00;10394508;28;20050;-79
2022/01/02 12:52:36;;;;;;;21.25;11.55;;;;;;;7.18;100.00;98537.84;10403681;28;20058;-78
2022/01/02 12:57:36;;;;;;;17.35;10.50;;;;;;;7.16;100.00;98525.88;10414771;28;20058;-80
2022/01/02 13:02:37;;;;;;;16.80;11.18;;;;;;;7.23;100.00;98521.75;10347994;28;20070;-78
2022/01/02 13:07:38;;;;;;;16.42;10.15;;;;;;;7.25;100.00;98521.44;10378018;28;20068;-78
2022/01/02 13:12:39;;;;;;;16.83;10.18;;;;;;;7.30;100.00;98513.31;10369143;28;20149;-77
2022/01/02 13:17:45;;;;;;;15.20;10.00;;;;;;;7.23;100.00;98513.72;10362914;28;20105;-79
2022/01/02 13:22:54;;;;;;;16.23;10.73;;;;;;;7.29;100.00;98515.22;10380242;28;20098;-80
2022/01/02 13:28:14;;;;;;;16.13;10.55;;;;;;;7.28;100.00;98507.50;10345362;28;20058;-82
2022/01/02 13:33:43;;;;;;;16.20;9.93;;;;;;;7.29;100.00;98504.53;10370894;28;20038;-82
2022/01/02 13:39:01;;;;;;;15.50;9.95;;;;;;;7.31;100.00;98497.00;10371606;28;20112;-83
2022/01/02 13:44:14;;;;;;;16.33;10.10;;;;;;;7.38;100.00;98481.41;10362660;28;20058;-80
2022/01/02 13:49:43;;;;;;;14.75;10.35;;;;;;;7.39;100.00;98476.84;10352558;28;20404;-79
2022/01/02 13:54:46;;;;;;;17.45;10.73;;;;;;;7.49;100.00;98478.53;10375016;28;20054;-80
2022/01/02 13:59:49;;;;;;;18.60;11.05;;;;;;;7.60;100.00;98464.69;10366559;28;20113;-81
2022/01/02 14:05:00;;;;;;;15.30;10.55;;;;;;;7.68;100.00;98452.47;10359191;28;20130;-83
2022/01/02 14:10:07;;;;;;;16.83;10.68;;;;;;;7.68;100.00;98445.28;10381532;28;20050;-80
2022/01/02 14:15:26;;;;;;;15.18;10.15;;;;;;;7.77;100.00;98441.88;10395911;28;20073;-81
2022/01/02 14:20:34;;;;;;;14.40;9.18;;;;;;;7.76;100.00;98429.63;10404257;28;20240;-82
2022/01/02 14:25:34;;;;;;;15.45;10.20;;;;;;;7.79;100.00;98429.03;10354305;28;20138;-82
2022/01/02 14:30:38;;;;;;;17.60;10.57;;;;;;;7.80;100.00;98420.72;10374742;28;20121;-83
2022/01/02 14:35:41;;;;;;;14.95;9.35;;;;;;;7.82;100.00;98410.50;10404056;28;20129;-84
2022/01/02 14:41:19;;;;;;;15.82;8.95;;;;;;;7.73;100.00;98404.31;10396128;28;20049;-86
2022/01/02 14:47:03;;;;;;;13.73;8.77;;;;;;;7.67;100.00;98384.13;10361473;28;20125;-83
2022/01/02 14:52:22;;;;;;;11.95;8.20;;;;;;;7.60;100.00;98405.91;10397541;28;20045;-84
2022/01/02 14:57:30;;;;;;;12.07;8.77;;;;;;;7.56;100.00;98428.97;10412512;28;20152;-79
2022/01/02 15:02:32;;;;;;;16.00;9.93;;;;;;;7.51;100.00;98449.66;10367770;28;20102;-82
2022/01/02 15:07:33;;;;;;;13.43;9.03;;;;;;;7.49;100.00;98460.63;10342792;28;20077;-81
2022/01/02 15:12:36;;;;;;;13.75;8.82;;;;;;;7.27;100.00;98465.88;10385550;28;20103;-81
2022/01/02 15:17:57;;;;;;;12.85;9.57;;;;;;;6.98;100.00;98474.94;10366397;28;20200;-81
2022/01/02 15:22:59;;;;;;;15.60;9.90;;;;;;;6.80;100.00;98484.59;10357036;28;20061;-82
2022/01/02 15:28:15;;;;;;;15.85;9.82;;;;;;;6.65;100.00;98479.50;10364080;28;20078;-82
2022/01/02 15:33:15;;;;;;;;;;;;;;;6.46;100.00;98479.53;10359039;28;20054;-82
2022/01/02 15:38:23;;;;;;;15.05;9.88;;;;;;;6.46;100.00;98487.53;10378455;28;20428;-83
2022/01/02 15:43:44;;;;;;;13.82;9.85;;;;;;;6.47;100.00;98480.31;10366035;28;20055;-84
2022/01/02 15:48:44;;;;;;;15.45;10.00;;;;;;;6.38;100.00;98482.06;10374485;28;20060;-82
2022/01/02 15:53:45;;;;;;;16.30;10.40;;;;;;;6.53;100.00;98487.97;10341482;28;20069;-82
2022/01/02 15:58:47;;;;;;;16.70;10.73;;;;;;;6.70;100.00;98503.44;10340995;28;20057;-82
2022/01/02 16:03:47;;;;;;;12.10;8.80;;;;;;;6.63;100.00;98503.00;10358233;28;20481;-81
2022/01/02 16:08:54;;;;;;;11.00;8.07;;;;;;;6.62;100.00;98513.97;10355467;28;20062;-81
2022/01/02 16:14:00;;;;;;;12.45;9.13;;;;;;;6.62;100.00;98512.09;10325161;28;20070;-83
2022/01/02 16:19:01;;;;;;;15.38;11.02;;;;;;;6.67;100.00;98524.53;10342811;28;20054;-82
2022/01/02 16:24:02;;;;;;;14.07;9.60;;;;;;;6.42;100.00;98518.53;10341317;28;20065;-80
2022/01/02 16:29:05;;;;;;;15.57;10.00;;;;;;;6.21;100.00;98525.22;10359746;28;20491;-80
2022/01/02 16:34:06;;;;;;;13.55;10.13;;;;;;;6.26;100.00;98533.94;10338288;28;20046;-81
2022/01/02 16:39:10;;;;;;;13.70;9.95;;;;;;;6.31;100.00;98526.94;10358448;28;20062;-82
2022/01/02 16:44:16;;;;;;;11.98;8.57;;;;;;;6.23;100.00;98528.41;10362137;28;20072;-81
2022/01/02 16:49:20;;;;;;;10.68;7.68;;;;;;;6.30;100.00;98522.69;10335084;28;20050;-80
2022/01/02 16:54:21;;;;;;;9.93;7.70;;;;;;;6.24;100.00;98527.31;10373207;28;20070;-79
2022/01/02 16:59:24;;;;;;;12.93;8.15;;;;;;;6.26;100.00;98523.28;10385284;28;20046;-83
2022/01/02 17:04:25;;;;;;;10.35;7.85;;;;;;;6.38;100.00;98512.19;10367306;28;20114;-80
2022/01/02 17:09:27;;;;;;;12.70;7.88;;;;;;;6.46;100.00;98530.19;10372288;28;20050;-80
2022/01/02 17:14:31;;;;;;;14.93;8.32;;;;;;;6.47;100.00;98530.97;10386563;28;20077;-82
2022/01/02 17:19:32;;;;;;;9.43;6.55;;;;;;;6.44;100.00;98529.69;10368423;28;20069;-80
2022/01/02 17:24:34;;;;;;;14.00;8.95;;;;;;;6.46;100.00;98538.19;10363702;28;20136;-80
2022/01/02 17:29:36;;;;;;;10.90;7.50;;;;;;;6.38;100.00;98559.38;10373868;28;20081;-83
2022/01/02 17:34:38;;;;;;;7.25;5.70;;;;;;;6.57;100.00;98565.50;10350939;28;20049;-82
2022/01/02 17:39:41;;;;;;;7.57;5.50;;;;;;;6.83;100.00;98569.34;10351189;28;20054;-82
2022/01/02 17:44:42;;;;;;;7.82;5.20;;;;;;;6.96;100.00;98572.38;10335394;28;20057;-80
2022/01/02 17:49:43;;;;;;;7.95;5.05;;;;;;;7.19;100.00;98568.00;10356402;28;20517;-80
2022/01/02 17:54:50;;;;;;;5.93;4.10;;;;;;;7.32;100.00;98592.06;10359118;28;20380;-82
2022/01/02 17:59:52;;;;;;;8.35;4.40;;;;;;;7.43;100.00;98584.66;10328593;28;20089;-84
2022/01/02 18:04:54;;;;;;;6.32;4.63;;;;;;;7.54;100.00;98591.41;10332526;28;20381;-83
2022/01/02 18:10:02;;;;;;;5.75;4.00;;;;;;;7.67;100.00;98579.13;10333439;28;20061;-85
2022/01/02 18:15:07;;;;;;;8.38;4.60;;;;;;;7.70;100.00;98567.88;10369088;28;20076;-82
2022/01/02 18:20:08;;;;;;;6.28;4.07;;;;;;;7.81;100.00;98571.13;10345761;28;20141;-84
2022/01/02 18:25:10;;;;;;;12.10;7.03;;;;;;;7.76;100.00;98555.97;10314198;28;20362;-80
2022/01/02 18:30:12;;;;;;;6.85;4.30;;;;;;;7.85;100.00;98542.72;10379848;28;20129;-81
2022/01/02 18:35:14;;;;;;;7.28;4.65;;;;;;;7.80;100.00;98534.81;10376264;28;20050;-81
2022/01/02 18:40:17;;;;;;;7.13;4.28;;;;;;;7.75;100.00;98533.03;10329031;28;20050;-81
2022/01/02 18:45:19;;;;;;;7.38;4.70;;;;;;;7.69;100.00;98537.69;10337115;28;20066;-79
2022/01/02 18:50:19;;;;;;;9.52;5.60;;;;;;;7.59;100.00;98534.41;10357471;28;20050;-80
2022/01/02 18:55:20;;;;;;;8.15;5.28;;;;;;;7.42;100.00;98532.34;10350652;28;20046;-81
2022/01/02 19:00:21;;;;;;;14.63;8.27;;;;;;;7.32;100.00;98517.31;10349717;28;20120;-81
2022/01/02 19:05:33;;;;;;;12.85;8.68;;;;;;;7.17;100.00;98511.44;10370261;28;20204;-84
2022/01/02 19:10:39;;;;;;;12.55;7.70;;;;;;;7.19;100.00;98514.59;10357170;28;20117;-83
2022/01/02 19:15:40;;;;;;;11.02;6.75;;;;;;;7.10;100.00;98509.16;10359588;28;20101;-84
2022/01/02 19:20:41;;;;;;;8.80;5.72;;;;;;;7.06;100.00;98514.28;10363013;28;20149;-81
2022/01/02 19:25:43;;;;;;;7.03;5.10;;;;;;;7.03;100.00;98514.06;10370849;28;20120;-81
2022/01/02 19:30:45;;;;;;;8.38;5.75;;;;;;;7.06;100.00;98506.28;10372611;28;20393;-81
2022/01/02 19:35:47;;;;;;;8.95;5.78;;;;;;;7.14;100.00;98518.16;10394778;28;20042;-80
2022/01/02 19:40:48;;;;;;;7.35;5.53;;;;;;;7.28;100.00;98526.97;10393187;28;20050;-79
2022/01/02 19:45:50;;;;;;;5.63;5.00;;;;;;;7.33;100.00;98500.19;10413961;28;20045;-79
2022/01/02 19:50:50;;;;;;;8.80;4.85;;;;;;;7.48;100.00;98501.75;10357766;28;20062;-79
2022/01/02 19:55:51;;;;;;;7.57;4.65;;;;;;;7.58;100.00;98511.47;10395265;28;20553;-82
2022/01/02 20:00:52;;;;;;;7.47;4.97;;;;;;;7.57;100.00;98499.19;10376528;28;20093;-80
2022/01/02 20:05:52;;;;;;;4.68;3.17;;;;;;;7.74;100.00;98498.59;10356278;28;20066;-82
2022/01/02 20:10:57;;;;;;;4.20;2.70;;;;;;;8.13;100.00;98498.03;10371118;28;20058;-83
2022/01/02 20:16:02;;;;;;;4.07;2.10;;;;;;;8.55;100.00;98502.19;10377992;28;20065;-80
2022/01/02 20:21:04;;;;;;;5.10;2.42;;;;;;;8.69;100.00;98486.88;10378048;28;20058;-81
2022/01/02 20:26:07;;;;;;;3.22;2.08;;;;;;;8.91;100.00;98459.28;10373708;28;20042;-83
2022/01/02 20:31:13;;;;;;;5.55;2.00;;;;;;;9.02;100.00;98468.63;10375335;28;20086;-86
2022/01/02 20:42:03;;;;;;;4.95;2.17;;;;;;;9.14;100.00;98460.00;10585916;23;20045;-88
2022/01/02 20:47:04;;;;;;;4.45;2.05;;;;;;;9.25;100.00;98447.94;10362857;28;20042;-82
2022/01/02 20:52:16;;;;;;;4.05;2.38;;;;;;;9.35;100.00;98445.00;10403829;28;20053;-82
2022/01/02 20:57:56;;;;;;;4.72;2.35;;;;;;;9.32;100.00;98444.81;10393300;28;20066;-83
2022/01/02 21:03:25;;;;;;;4.10;2.30;;;;;;;9.23;100.00;98428.69;10357306;28;20050;-85
2022/01/02 21:08:35;;;;;;;4.07;2.45;;;;;;;9.19;100.00;98417.03;10388376;28;20060;-87
2022/01/02 21:13:42;;;;;;;5.80;2.20;;;;;;;9.31;100.00;98406.50;10335188;28;20050;-84
2022/01/02 21:18:44;;;;;;;3.63;2.05;;;;;;;9.28;100.00;98407.16;10389176;28;20066;-85
2022/01/02 21:24:02;;;;;;;4.43;2.40;;;;;;;9.26;100.00;98412.03;10389374;28;20068;-86
2022/01/02 21:29:20;;;;;;;3.97;2.47;;;;;;;9.19;100.00;98408.22;10359508;28;20445;-81
2022/01/02 21:34:22;;;;;;;5.50;2.33;;;;;;;9.19;100.00;98395.63;10382672;28;20030;-83
2022/01/02 21:39:24;;;;;;;4.37;2.03;;;;;;;9.29;100.00;98384.63;10427070;28;20076;-81
2022/01/02 21:44:26;;;;;;;5.63;2.05;;;;;;;9.39;100.00;98400.41;10414017;28;20037;-86
2022/01/02 21:49:27;;;;;;;11.55;2.70;;;;;;;9.41;100.00;98381.31;10380115;28;20061;-82
2022/01/02 21:54:30;;;;;;;5.03;2.10;;;;;;;9.55;100.00;98392.72;10425694;28;20057;-86
2022/01/02 21:59:32;;;;;;;4.38;2.08;;;;;;;9.65;100.00;98380.91;10414323;28;20042;-81
2022/01/02 22:04:33;;;;;;;8.50;2.22;;;;;;;9.76;100.00;98371.44;10412371;28;20145;-80
2022/01/02 22:09:39;;;;;;;3.95;2.00;;;;;;;9.74;100.00;98376.34;10358394;28;20057;-83
2022/01/02 22:14:41;;;;;;;4.43;2.35;;;;;;;9.64;100.00;98377.44;10366671;28;20076;-82
2022/01/02 22:19:46;;;;;;;4.32;1.80;;;;;;;9.72;100.00;98357.09;10381498;28;20098;-81
2022/01/02 22:24:56;;;;;;;3.83;2.00;;;;;;;9.76;100.00;98352.69;10383100;28;20058;-79
2022/01/02 22:29:58;;;;;;;5.07;2.15;;;;;;;9.87;100.00;98339.75;10397502;28;20053;-82
2022/01/02 22:35:03;;;;;;;3.50;2.08;;;;;;;10.00;100.00;98336.13;10428031;28;20060;-86
2022/01/02 22:45:37;;;;;;;4.65;2.03;;;;;;;9.82;100.00;98335.34;10285519;28;20059;-83
2022/01/02 22:50:47;;;;;;;4.28;1.90;;;;;;;9.86;100.00;98328.25;10279874;28;20043;-82
2022/01/02 22:55:52;;;;;;;3.22;1.98;;;;;;;9.89;100.00;98327.63;10264809;28;20059;-81
2022/01/02 23:01:02;;;;;;;3.60;2.15;;;;;;;9.98;100.00;98322.25;10263045;28;20115;-78
2022/01/02 23:06:06;;;;;;;5.82;2.03;;;;;;;9.99;100.00;98305.06;10283622;28;20057;-79
2022/01/02 23:11:14;;;;;;;7.07;2.20;;;;;;;10.05;100.00;98298.41;10251187;28;20051;-80
2022/01/02 23:16:37;;;;;;;4.47;1.77;;;;;;;10.19;100.00;98288.28;10275037;28;20141;-81
2022/01/02 23:21:46;;;;;;;4.68;1.92;;;;;;;10.34;100.00;98289.72;10271837;28;20055;-80
2022/01/02 23:26:49;;;;;;;5.22;1.90;;;;;;;10.26;100.00;98293.19;10240633;28;20063;-80
2022/01/02 23:31:50;;;;;;;2.70;1.35;;;;;;;10.36;100.00;98292.84;10223228;29;20071;-79
2022/01/02 23:36:54;;;;;;;5.03;2.10;;;;;;;10.44;100.00;98281.31;10246411;28;20067;-79
2022/01/02 23:41:56;;;;;;;3.70;1.55;;;;;;;10.47;100.00;98263.75;10286127;28;20050;-80